createdAt,value
2022-10-09T00:00:07.147Z,100.00
2022-10-09T00:04:08.925Z,100.00
2022-10-09T00:08:10.471Z,100.00
2022-10-09T00:12:11.854Z,100.00
2022-10-09T00:16:16.279Z,100.00
2022-10-09T00:20:17.857Z,100.00
2022-10-09T00:24:19.286Z,100.00
2022-10-09T00:28:22.760Z,100.00
2022-10-09T00:32:24.277Z,100.00
2022-10-09T00:36:26.340Z,100.00
2022-10-09T00:40:27.719Z,100.00
2022-10-09T00:45:00.218Z,100.00
2022-10-09T00:49:31.376Z,100.00
2022-10-09T00:53:32.881Z,100.00
2022-10-09T00:57:35.260Z,100.00
2022-10-09T01:01:37.677Z,100.00
2022-10-09T01:05:51.131Z,100.00
2022-10-09T01:10:01.633Z,100.00
2022-10-09T01:14:22.734Z,100.00
2022-10-09T01:18:31.013Z,100.00
2022-10-09T01:23:09.574Z,100.00
2022-10-09T01:27:22.086Z,100.00
2022-10-09T01:31:27.718Z,100.00
2022-10-09T01:35:30.519Z,100.00
2022-10-09T01:39:33.848Z,100.00
2022-10-09T01:43:35.408Z,100.00
2022-10-09T01:47:37.844Z,100.00
2022-10-09T01:52:00.886Z,100.00
2022-10-09T01:56:09.040Z,100.00
2022-10-09T02:00:12.339Z,100.00
2022-10-09T02:04:16.641Z,100.00
2022-10-09T02:08:20.803Z,100.00
2022-10-09T02:12:25.212Z,100.00
2022-10-09T02:16:37.377Z,100.00
2022-10-09T02:20:45.375Z,100.00
2022-10-09T02:24:47.614Z,100.00
2022-10-09T02:28:49.580Z,100.00
2022-10-09T02:32:54.429Z,100.00
2022-10-09T02:36:55.815Z,100.00
2022-10-09T02:40:59.100Z,100.00
2022-10-09T02:45:00.574Z,100.00
2022-10-09T02:49:02.028Z,100.00
2022-10-09T02:53:03.549Z,100.00
2022-10-09T02:57:04.927Z,100.00
2022-10-09T03:01:06.762Z,100.00
2022-10-09T03:05:08.699Z,100.00
2022-10-09T03:09:10.287Z,100.00
2022-10-09T03:13:11.701Z,100.00
2022-10-09T03:17:13.143Z,100.00
2022-10-09T03:21:17.707Z,100.00
2022-10-09T03:25:19.079Z,100.00
2022-10-09T03:29:20.582Z,100.00
2022-10-09T03:33:22.094Z,100.00
2022-10-09T03:37:23.570Z,100.00
2022-10-09T03:41:25.033Z,100.00
2022-10-09T03:45:26.452Z,100.00
2022-10-09T03:49:27.804Z,100.00
2022-10-09T03:53:29.448Z,100.00
2022-10-09T03:57:30.879Z,100.00
2022-10-09T04:01:32.415Z,100.00
2022-10-09T04:05:35.109Z,100.00
2022-10-09T04:09:36.530Z,100.00
2022-10-09T04:13:37.994Z,100.00
2022-10-09T04:17:39.372Z,100.00
2022-10-09T04:21:40.735Z,100.00
2022-10-09T04:25:42.147Z,100.00
2022-10-09T04:29:43.590Z,100.00
2022-10-09T04:33:44.967Z,100.00
2022-10-09T04:37:46.376Z,100.00
2022-10-09T04:41:47.738Z,100.00
2022-10-09T04:45:49.170Z,100.00
2022-10-09T04:49:50.667Z,100.00
2022-10-09T04:53:52.127Z,100.00
2022-10-09T04:57:53.533Z,100.00
2022-10-09T05:01:54.972Z,100.00
2022-10-09T05:06:00.952Z,100.00
2022-10-09T05:10:02.335Z,100.00
2022-10-09T05:14:03.715Z,100.00
2022-10-09T05:18:05.306Z,100.00
2022-10-09T05:22:06.707Z,100.00
2022-10-09T05:26:14.357Z,100.00
2022-10-09T05:30:15.951Z,100.00
2022-10-09T05:34:17.395Z,100.00
2022-10-09T05:38:19.412Z,100.00
2022-10-09T05:42:20.867Z,100.00
2022-10-09T05:46:24.220Z,100.00
2022-10-09T05:50:27.067Z,100.00
2022-10-09T05:54:28.533Z,100.00
2022-10-09T05:58:29.934Z,100.00
2022-10-09T06:02:31.366Z,100.00
2022-10-09T06:06:35.753Z,100.00
2022-10-09T06:10:37.189Z,100.00
2022-10-09T06:14:38.580Z,100.00
2022-10-09T06:18:43.517Z,100.00
2022-10-09T06:22:47.125Z,100.00
2022-10-09T06:26:48.707Z,100.00
2022-10-09T06:30:50.610Z,100.00
2022-10-09T06:34:52.058Z,100.00
2022-10-09T06:38:54.034Z,100.00
2022-10-09T06:42:55.492Z,100.00
2022-10-09T06:46:56.931Z,100.00
2022-10-09T06:51:07.202Z,100.00
2022-10-09T06:55:08.899Z,100.00
2022-10-09T06:59:11.103Z,100.00
2022-10-09T07:03:12.713Z,100.00
2022-10-09T07:07:14.122Z,100.00
2022-10-09T07:11:17.120Z,100.00
2022-10-09T07:15:18.575Z,100.00
2022-10-09T07:19:20.068Z,100.00
2022-10-09T07:23:21.490Z,100.00
2022-10-09T07:27:22.915Z,100.00
2022-10-09T07:31:24.991Z,100.00
2022-10-09T07:35:26.474Z,100.00
2022-10-09T07:39:27.862Z,100.00
2022-10-09T07:43:29.925Z,100.00
2022-10-09T07:47:32.969Z,100.00
2022-10-09T07:51:35.798Z,100.00
2022-10-09T07:55:37.382Z,100.00
2022-10-09T07:59:38.806Z,100.00
2022-10-09T08:03:40.219Z,100.00
2022-10-09T08:07:41.612Z,100.00
2022-10-09T08:11:46.131Z,100.00
2022-10-09T08:15:47.609Z,100.00
2022-10-09T08:19:49.108Z,100.00
2022-10-09T08:23:55.544Z,100.00
2022-10-09T08:27:57.162Z,100.00
2022-10-09T08:32:00.100Z,100.00
2022-10-09T08:36:07.738Z,100.00
2022-10-09T08:40:17.578Z,100.00
2022-10-09T08:44:24.309Z,100.00
2022-10-09T08:48:28.567Z,100.00
2022-10-09T08:52:50.263Z,100.00
2022-10-09T08:56:53.186Z,100.00
2022-10-09T09:01:03.190Z,100.00
2022-10-09T09:05:07.307Z,100.00
2022-10-09T09:09:20.790Z,100.00
2022-10-09T09:13:47.803Z,100.00
2022-10-09T09:18:04.090Z,100.00
2022-10-09T09:22:30.592Z,100.00
2022-10-09T09:26:32.001Z,100.00
2022-10-09T09:30:44.105Z,100.00
2022-10-09T09:34:45.694Z,100.00
2022-10-09T09:39:32.432Z,100.00
2022-10-09T09:43:23.350Z,100.00
2022-10-09T09:47:40.321Z,100.00
2022-10-09T09:51:41.926Z,99.42
2022-10-09T09:55:45.892Z,97.96
2022-10-09T09:59:47.397Z,92.75
2022-10-09T10:03:51.589Z,91.50
2022-10-09T10:07:53.336Z,96.64
2022-10-09T10:11:58.996Z,94.53
2022-10-09T10:16:01.357Z,89.17
2022-10-09T10:20:06.567Z,85.84
2022-10-09T10:24:14.915Z,83.52
2022-10-09T10:28:21.870Z,84.10
2022-10-09T10:32:37.179Z,85.40
2022-10-09T10:36:38.552Z,83.76
2022-10-09T10:41:20.035Z,80.74
2022-10-09T10:45:30.999Z,77.49
2022-10-09T10:49:33.974Z,76.32
2022-10-09T10:53:35.457Z,77.40
2022-10-09T10:58:02.988Z,72.71
2022-10-09T11:02:07.219Z,76.36
2022-10-09T11:06:34.717Z,72.18
2022-10-09T11:10:57.597Z,69.90
2022-10-09T11:15:08.672Z,68.94
2022-10-09T11:19:22.155Z,70.32
2022-10-09T11:23:44.468Z,67.17
2022-10-09T11:28:13.177Z,62.80
2022-10-09T11:32:23.556Z,64.93
2022-10-09T11:36:33.098Z,62.75
2022-10-09T11:40:43.668Z,60.70
2022-10-09T11:44:56.422Z,66.78
2022-10-09T11:49:37.328Z,65.51
2022-10-09T11:53:40.065Z,61.01
2022-10-09T11:57:41.506Z,62.05
2022-10-09T12:01:44.707Z,62.09
2022-10-09T12:05:49.365Z,57.69
2022-10-09T12:09:59.070Z,60.47
2022-10-09T12:14:03.926Z,67.75
2022-10-09T12:18:39.253Z,65.19
2022-10-09T12:22:56.392Z,65.92
2022-10-09T12:27:06.451Z,60.37
2022-10-09T12:31:18.523Z,58.79
2022-10-09T12:35:36.854Z,55.78
2022-10-09T12:39:38.594Z,53.92
2022-10-09T12:43:45.347Z,55.09
2022-10-09T12:47:47.440Z,52.09
2022-10-09T12:51:56.214Z,52.77
2022-10-09T12:56:00.453Z,53.64
2022-10-09T13:00:02.093Z,55.66
2022-10-09T13:04:05.829Z,57.34
2022-10-09T13:08:23.906Z,57.39
2022-10-09T13:12:27.532Z,55.81
2022-10-09T13:16:48.735Z,49.96
2022-10-09T13:21:17.549Z,52.02
2022-10-09T13:25:19.029Z,50.22
2022-10-09T13:29:21.029Z,50.30
2022-10-09T13:33:22.662Z,49.43
2022-10-09T13:37:25.863Z,48.15
2022-10-09T13:41:27.320Z,49.03
2022-10-09T13:45:28.916Z,52.38
2022-10-09T13:49:30.344Z,53.84
2022-10-09T13:53:32.635Z,51.92
2022-10-09T13:57:34.112Z,53.56
2022-10-09T14:01:35.619Z,51.48
2022-10-09T14:05:37.153Z,51.77
2022-10-09T14:09:38.717Z,51.79
2022-10-09T14:13:40.265Z,51.01
2022-10-09T14:17:41.702Z,48.76
2022-10-09T14:21:43.129Z,49.76
2022-10-09T14:25:44.554Z,46.98
2022-10-09T14:29:47.411Z,50.51
2022-10-09T14:33:49.499Z,50.24
2022-10-09T14:37:51.058Z,51.62
2022-10-09T14:41:52.625Z,51.37
2022-10-09T14:46:09.098Z,51.77
2022-10-09T14:50:10.679Z,51.68
2022-10-09T14:54:13.740Z,50.90
2022-10-09T14:58:15.126Z,50.68
2022-10-09T15:02:16.886Z,54.49
2022-10-09T15:06:20.134Z,57.41
2022-10-09T15:10:21.512Z,57.81
2022-10-09T15:14:23.199Z,60.08
2022-10-09T15:18:24.644Z,59.38
2022-10-09T15:22:26.112Z,59.56
2022-10-09T15:26:29.305Z,61.40
2022-10-09T15:30:31.302Z,61.26
2022-10-09T15:34:33.548Z,61.68
2022-10-09T15:38:35.337Z,63.26
2022-10-09T15:42:41.435Z,64.42
2022-10-09T15:46:43.434Z,65.57
2022-10-09T15:50:46.523Z,66.29
2022-10-09T15:54:47.962Z,65.84
2022-10-09T15:58:50.544Z,65.74
2022-10-09T16:02:52.335Z,68.15
2022-10-09T16:06:53.990Z,69.26
2022-10-09T16:10:55.724Z,70.62
2022-10-09T16:15:01.040Z,71.84
2022-10-09T16:19:03.804Z,74.38
2022-10-09T16:23:10.979Z,74.67
2022-10-09T16:27:12.723Z,76.06
2022-10-09T16:31:21.906Z,76.84
2022-10-09T16:35:23.442Z,76.87
2022-10-09T16:39:24.867Z,79.35
2022-10-09T16:43:26.327Z,79.73
2022-10-09T16:47:28.781Z,82.10
2022-10-09T16:51:35.735Z,83.01
2022-10-09T16:55:54.323Z,85.91
2022-10-09T16:59:55.785Z,86.64
2022-10-09T17:04:00.172Z,89.04
2022-10-09T17:08:01.601Z,89.79
2022-10-09T17:12:28.735Z,91.04
2022-10-09T17:16:42.714Z,92.68
2022-10-09T17:20:49.785Z,93.72
2022-10-09T17:24:51.163Z,93.88
2022-10-09T17:28:53.510Z,93.44
2022-10-09T17:32:55.337Z,93.70
2022-10-09T17:36:56.863Z,93.27
2022-10-09T17:40:58.345Z,95.78
2022-10-09T17:45:00.534Z,96.54
2022-10-09T17:49:02.091Z,97.16
2022-10-09T17:53:04.630Z,97.53
2022-10-09T17:57:07.075Z,98.74
2022-10-09T18:01:09.589Z,98.50
2022-10-09T18:05:11.284Z,100.00
2022-10-09T18:09:12.766Z,100.00
2022-10-09T18:13:14.467Z,100.00
2022-10-09T18:17:15.996Z,100.00
2022-10-09T18:21:17.764Z,100.00
2022-10-09T18:25:19.204Z,100.00
2022-10-09T18:29:20.745Z,100.00
2022-10-09T18:33:22.570Z,100.00
2022-10-09T18:37:24.335Z,100.00
2022-10-09T18:41:26.163Z,100.00
2022-10-09T18:45:27.960Z,100.00
2022-10-09T18:49:31.810Z,100.00
2022-10-09T18:53:39.130Z,100.00
2022-10-09T18:57:41.762Z,100.00
2022-10-09T19:01:45.465Z,100.00
2022-10-09T19:05:46.959Z,100.00
2022-10-09T19:09:56.953Z,100.00
2022-10-09T19:14:00.641Z,100.00
2022-10-09T19:18:02.176Z,100.00
2022-10-09T19:22:04.458Z,100.00
2022-10-09T19:26:06.115Z,100.00
2022-10-09T19:30:08.507Z,100.00
2022-10-09T19:34:10.522Z,100.00
2022-10-09T19:38:12.780Z,100.00
2022-10-09T19:42:15.918Z,100.00
2022-10-09T19:46:20.829Z,100.00
2022-10-09T19:50:22.389Z,100.00
2022-10-09T19:54:23.756Z,100.00
2022-10-09T19:58:25.222Z,100.00
2022-10-09T20:02:26.673Z,100.00
2022-10-09T20:06:28.482Z,100.00
2022-10-09T20:10:30.047Z,100.00
2022-10-09T20:14:31.445Z,100.00
2022-10-09T20:18:33.492Z,100.00
2022-10-09T20:22:34.950Z,100.00
2022-10-09T20:26:40.874Z,100.00
2022-10-09T20:30:44.350Z,100.00
2022-10-09T20:34:45.891Z,100.00
2022-10-09T20:38:47.901Z,100.00
2022-10-09T20:42:49.555Z,100.00
2022-10-09T20:46:56.561Z,100.00
2022-10-09T20:51:00.783Z,100.00
2022-10-09T20:55:02.248Z,100.00
2022-10-09T20:59:04.005Z,100.00
2022-10-09T21:03:09.269Z,100.00
2022-10-09T21:07:13.107Z,100.00
2022-10-09T21:11:17.218Z,100.00
2022-10-09T21:15:18.825Z,100.00
2022-10-09T21:19:20.265Z,100.00
2022-10-09T21:23:21.750Z,100.00
2022-10-09T21:27:23.141Z,100.00
2022-10-09T21:31:27.432Z,100.00
2022-10-09T21:35:28.890Z,100.00
2022-10-09T21:39:30.498Z,100.00
2022-10-09T21:43:31.926Z,100.00
2022-10-09T21:47:33.317Z,100.00
2022-10-09T21:51:34.752Z,100.00
2022-10-09T21:55:37.765Z,100.00
2022-10-09T21:59:39.220Z,100.00
2022-10-09T22:03:41.751Z,100.00
2022-10-09T22:07:43.193Z,100.00
2022-10-09T22:11:44.936Z,100.00
2022-10-09T22:15:50.782Z,100.00
2022-10-09T22:19:52.674Z,100.00
2022-10-09T22:23:54.103Z,100.00
2022-10-09T22:27:55.497Z,100.00
2022-10-09T22:31:56.927Z,100.00
2022-10-09T22:36:05.991Z,100.00
2022-10-09T22:40:07.707Z,100.00
2022-10-09T22:44:10.814Z,100.00
2022-10-09T22:48:12.253Z,100.00
2022-10-09T22:52:13.717Z,100.00
2022-10-09T22:56:20.638Z,100.00
2022-10-09T23:00:22.065Z,100.00
2022-10-09T23:04:24.043Z,100.00
2022-10-09T23:08:25.429Z,100.00
2022-10-09T23:12:26.807Z,100.00
2022-10-09T23:16:29.984Z,100.00
2022-10-09T23:20:35.092Z,100.00
2022-10-09T23:24:36.538Z,100.00
2022-10-09T23:28:38.181Z,100.00
2022-10-09T23:32:39.639Z,100.00
2022-10-09T23:36:41.064Z,100.00
2022-10-09T23:40:42.491Z,100.00
2022-10-09T23:44:44.051Z,100.00
2022-10-09T23:48:46.302Z,100.00
2022-10-09T23:52:47.994Z,100.00
2022-10-09T23:56:49.565Z,100.00
